Weather History for KANK - April, 2014

Change the Weather History Date:

Tuesday, April 1, 2014

  Actual Average (KGUC) Record (KGUC)
Temperature  
Mean Temperature 42 °F -  
Max Temperature 54 °F 47 °F 66 °F (2012)
Min Temperature 29 °F 20 °F 10 °F (2008)
Degree Days  
Heating Degree Days 24    
Moisture  
Dew Point 15 °F    
Average Humidity 36    
Maximum Humidity 64    
Minimum Humidity 17    
Precipitation  
Precipitation 0.00 in - - ()
Sea Level Pressure  
Sea Level Pressure 29.87 in    
Wind  
Wind Speed 13 mph (WSW)    
Max Wind Speed 24 mph    
Max Gust Speed 34 mph    
Visibility 10 miles    
Events      
Averages and records for this station are not official NWS values.
T = Trace of Precipitation, MM = Missing Value Source: NWS Daily Summary

Daily Weather History Graph

Daily Weather History Graph

Search for Another Location

Airport or City:

Trip Planner

Search our weather history database for the weather conditions in past years. The results will help you decide how hot, cold, wet, or windy it might be!

Date:

Astronomy

Apr. 01, 2014 Rise Set
Actual Time 6:48 AM MDT 7:27 PM MDT
Civil Twilight 6:22 AM MDT 7:54 PM MDT
Nautical Twilight 5:50 AM MDT 8:26 PM MDT
Astronomical Twilight 5:18 AM MDT 8:58 PM MDT
Moon 7:54 AM MDT (4/1) 9:51 PM MDT (4/1)
Length of Visible Light 13h 32m
Length of Day
12h 38m
Waxing Crescent, 5% of the Moon is Illuminated
Apr 1
Waxing Crescent
Apr 7
First Quarter
Apr 15
Full
Apr 22
Last Quarter
Apr 29
New

Hourly Weather History & Observations

Time (MDT) Temp. Windchill Dew Point Humidity Pressure Visibility Wind Dir Wind Speed Gust Speed Precip Events Conditions
12:15 AM 38.1 °F 30.7 °F 7.7 °F 28% 30.01 in 10.0 mi ESE 11.5 mph 21.9 mph N/A   Overcast
12:35 AM 37.8 °F 29.0 °F 9.5 °F 31% 30.00 in 10.0 mi ESE 15.0 mph 21.9 mph N/A   Overcast
12:55 AM 37.4 °F 28.2 °F 11.1 °F 34% 30.00 in 10.0 mi ESE 16.1 mph 23.0 mph N/A   Overcast
1:15 AM 36.9 °F 28.2 °F 12.7 °F 37% 29.99 in 10.0 mi ESE 13.8 mph 23.0 mph N/A   Overcast
1:35 AM 36.3 °F 27.1 °F 14.2 °F 40% 29.99 in 10.0 mi ESE 15.0 mph 27.6 mph N/A   Overcast
1:55 AM 35.6 °F 24.8 °F 15.6 °F 44% 29.98 in 10.0 mi ESE 19.6 mph 27.6 mph N/A   Overcast
2:15 AM 34.9 °F 25.7 °F 16.3 °F 47% 29.98 in 10.0 mi ESE 13.8 mph 24.2 mph N/A   Overcast
2:35 AM 34.3 °F 23.5 °F 16.7 °F 49% 29.98 in 10.0 mi ESE 18.4 mph 28.8 mph N/A   Overcast
2:55 AM 33.8 °F 23.5 °F 16.9 °F 50% 29.97 in 10.0 mi ESE 16.1 mph 25.3 mph N/A   Overcast
3:15 AM 33.4 °F 22.7 °F 17.1 °F 51% 29.97 in 10.0 mi ESE 17.3 mph 24.2 mph N/A   Overcast
3:35 AM 32.9 °F 22.4 °F 17.2 °F 53% 29.96 in 10.0 mi SE 16.1 mph 21.9 mph N/A   Overcast
3:55 AM 32.4 °F 20.0 °F 17.2 °F 54% 29.95 in 10.0 mi SE 21.9 mph 26.5 mph N/A   Overcast
4:15 AM 32.2 °F 22.3 °F 17.2 °F 54% 29.95 in 10.0 mi SE 13.8 mph 26.5 mph N/A   Overcast
4:35 AM 32.0 °F 21.2 °F 17.4 °F 55% 29.94 in 10.0 mi ESE 16.1 mph 24.2 mph N/A   Overcast
4:55 AM 32.0 °F 20.8 °F 17.4 °F 55% 29.94 in 10.0 mi ESE 17.3 mph 25.3 mph N/A   Overcast
5:15 AM 31.5 °F 20.1 °F 17.6 °F 57% 29.93 in 10.0 mi SE 17.3 mph 21.9 mph N/A   Overcast
5:35 AM 31.1 °F 19.3 °F 17.6 °F 57% 29.93 in 10.0 mi SE 18.4 mph 26.5 mph N/A   Overcast
5:55 AM 30.7 °F 20.0 °F 17.6 °F 58% 29.93 in 10.0 mi ESE 15.0 mph 23.0 mph N/A   Overcast
6:15 AM 30.2 °F 20.8 °F 17.8 °F 60% 29.93 in 10.0 mi ESE 11.5 mph 19.6 mph N/A   Overcast
6:35 AM 30.0 °F 21.1 °F 18.1 °F 61% 29.93 in 10.0 mi SE 10.4 mph 18.4 mph N/A   Overcast
6:55 AM 29.7 °F 19.6 °F 18.1 °F 62% 29.93 in 10.0 mi SE 12.7 mph 19.6 mph N/A   Overcast
7:15 AM 29.3 °F 20.2 °F 18.3 °F 64% 29.93 in 10.0 mi SE 10.4 mph 20.7 mph N/A   Overcast
7:35 AM 29.3 °F 19.1 °F 18.5 °F 64% 29.92 in 10.0 mi ESE 12.7 mph 21.9 mph N/A   Overcast
7:55 AM 29.7 °F 20.7 °F 18.5 °F 63% 29.92 in 10.0 mi SE 10.4 mph - N/A   Overcast
8:15 AM 30.0 °F 20.5 °F 18.9 °F 63% 29.92 in 10.0 mi ESE 11.5 mph 18.4 mph N/A   Overcast
8:35 AM 30.7 °F 23.3 °F 19.0 °F 62% 29.92 in 10.0 mi SE 8.1 mph - N/A   Mostly Cloudy
8:55 AM 32.0 °F 23.6 °F 19.2 °F 59% 29.90 in 10.0 mi ESE 10.4 mph - N/A   Mostly Cloudy
9:15 AM 34.5 °F 29.4 °F 19.4 °F 54% 29.90 in 10.0 mi ESE 5.8 mph - N/A   Scattered Clouds
9:35 AM 36.1 °F - 19.0 °F 50% 29.89 in 10.0 mi Calm Calm - N/A   Scattered Clouds
9:55 AM 39.0 °F 34.8 °F 18.9 °F 44% 29.88 in 10.0 mi East 5.8 mph - N/A   Mostly Cloudy
10:15 AM 41.2 °F 35.0 °F 18.5 °F 40% 29.88 in 10.0 mi North 10.4 mph - N/A   Overcast
10:35 AM 41.7 °F 34.4 °F 18.0 °F 38% 29.87 in 10.0 mi North 13.8 mph - N/A   Overcast
10:55 AM 45.7 °F 42.0 °F 17.8 °F 33% 29.88 in 10.0 mi WSW 6.9 mph 23.0 mph N/A   Overcast
11:15 AM 45.9 °F 38.8 °F 22.1 °F 39% 29.88 in 10.0 mi WSW 17.3 mph 26.5 mph N/A   Overcast
11:35 AM 48.4 °F - 19.0 °F 31% 29.89 in 10.0 mi SW 16.1 mph 26.5 mph N/A   Mostly Cloudy
11:55 AM 48.7 °F - 18.9 °F 31% 29.87 in 10.0 mi West 17.3 mph 23.0 mph N/A   Mostly Cloudy
12:15 PM 48.7 °F - 17.8 °F 29% 29.86 in 10.0 mi West 17.3 mph 27.6 mph N/A   Mostly Cloudy
12:35 PM 51.8 °F - 13.8 °F 22% 29.85 in 10.0 mi SW 24.2 mph 34.5 mph N/A   Scattered Clouds
12:55 PM 53.6 °F - 17.6 °F 24% 29.84 in 10.0 mi NW 10.4 mph 33.4 mph N/A   Scattered Clouds
1:15 PM 51.4 °F - 19.0 °F 28% 29.84 in 10.0 mi WNW 12.7 mph 20.7 mph N/A   Scattered Clouds
1:35 PM 53.2 °F - 13.1 °F 20% 29.84 in 10.0 mi WSW 19.6 mph 28.8 mph N/A   Mostly Cloudy
1:55 PM 52.2 °F - 15.6 °F 24% 29.82 in 10.0 mi West 19.6 mph 28.8 mph N/A   Mostly Cloudy
2:35 PM 52.3 °F - 16.7 °F 24% 29.81 in 10.0 mi WNW 17.3 mph 28.8 mph N/A   Scattered Clouds
2:55 PM 52.7 °F - 17.4 °F 25% 29.80 in 10.0 mi NW 17.3 mph 26.5 mph N/A   Scattered Clouds
3:15 PM 53.8 °F - 16.2 °F 23% 29.80 in 10.0 mi NW 11.5 mph 16.1 mph N/A   Mostly Cloudy
3:35 PM 54.7 °F - 13.5 °F 20% 29.80 in 10.0 mi West 9.2 mph 18.4 mph N/A   Mostly Cloudy
3:55 PM 54.5 °F - 12.2 °F 19% 29.78 in 10.0 mi NW 10.4 mph 20.7 mph N/A   Mostly Cloudy
4:15 PM 54.7 °F - 10.4 °F 17% 29.78 in 10.0 mi WNW 13.8 mph 20.7 mph N/A   Overcast
4:35 PM 54.0 °F - 10.2 °F 17% 29.78 in 10.0 mi WNW 12.7 mph 19.6 mph N/A   Mostly Cloudy
4:55 PM 53.1 °F - 9.7 °F 18% 29.78 in 10.0 mi WNW 16.1 mph 26.5 mph N/A   Overcast
5:15 PM 52.7 °F - 9.5 °F 18% 29.78 in 10.0 mi WNW 17.3 mph 23.0 mph N/A   Scattered Clouds
5:35 PM 51.8 °F - 9.0 °F 18% 29.78 in 10.0 mi WNW 15.0 mph 20.7 mph N/A   Clear
5:55 PM 51.4 °F - 8.6 °F 18% 29.78 in 10.0 mi WNW 12.7 mph 19.6 mph N/A   Clear
6:15 PM 51.1 °F - 8.2 °F 18% 29.79 in 10.0 mi NW 9.2 mph - N/A   Clear
6:35 PM 50.5 °F - 8.6 °F 18% 29.80 in 10.0 mi WNW 8.1 mph - N/A   Clear
6:55 PM 50.0 °F - 8.6 °F 19% 29.80 in 10.0 mi WNW 6.9 mph - N/A   Clear
7:15 PM 49.1 °F - 9.5 °F 20% 29.80 in 10.0 mi NW 4.6 mph - N/A   Clear
7:35 PM 48.9 °F - 9.5 °F 20% 29.80 in 10.0 mi NW 9.2 mph - N/A   Clear
7:55 PM 48.2 °F - 10.9 °F 22% 29.80 in 10.0 mi NW 5.8 mph - N/A   Scattered Clouds
8:15 PM 47.7 °F - 12.0 °F 24% 29.80 in 10.0 mi NW 5.8 mph - N/A   Scattered Clouds
8:35 PM 46.8 °F - 12.2 °F 25% 29.81 in 10.0 mi NNW 6.9 mph - N/A   Scattered Clouds
8:55 PM 46.4 °F - 12.6 °F 26% 29.82 in 10.0 mi Calm Calm - N/A   Mostly Cloudy
9:15 PM 46.4 °F 44.3 °F 12.2 °F 25% 29.82 in 10.0 mi North 4.6 mph - N/A   Overcast
9:35 PM 45.9 °F 44.6 °F 12.0 °F 25% 29.82 in 10.0 mi North 3.5 mph - N/A   Overcast
9:55 PM 45.0 °F - 12.0 °F 26% 29.82 in 10.0 mi Calm Calm - N/A   Overcast
10:15 PM 44.2 °F - 12.2 °F 27% 29.82 in 10.0 mi Calm Calm - N/A   Overcast
10:35 PM 43.3 °F - 11.7 °F 28% 29.82 in 10.0 mi Calm Calm - N/A   Overcast
10:55 PM 41.2 °F 38.2 °F 11.3 °F 30% 29.81 in 10.0 mi WNW 4.6 mph - N/A   Overcast
11:35 PM 42.1 °F 40.2 °F 11.3 °F 29% 29.80 in 10.0 mi NW 3.5 mph - N/A   Mostly Cloudy